Terminal Aerodrome Forecast
Issued by NWS

Home | Current Version | Previous Version | Text Only | Print | Product List | Glossary On
Versions: 1 2 3 4 5 6 7 8 9 10 11 12 13
822
FTUS42 KMLB 161734
TAFFPR
TAF
KFPR 161734Z 1618/1718 12012KT P6SM FEW040
     FM170000 11005KT P6SM FEW040 SCT250
     FM170600 11003KT P6SM SCT040
     FM171500 12011KT P6SM SCT035=

USA.gov is the U.S. government's official web portal to all federal, state and local government web resources and services.